Terminal Aerodrome Forecast
Issued by NWS Wilmington, OH

Current Version | Previous Version | Text Only | Print | Product List | Glossary Off
Versions: 1 2 3 4 5 6 7 8 9 10 11 12 13 14 15 16 17 18 19 20

000
FTUS41 KILN 262300
TAFCVG
TAF
KCVG 262340Z 2700/2806 34006KT P6SM VCTS SCT050CB BKN100
     FM270100 17003KT P6SM SCT050 SCT200
     FM270800 VRB02KT 5SM BR SCT050 SCT200
     FM271300 34006KT P6SM VCTS BKN050CB
     FM280000 02004KT P6SM BKN040=

USA.gov is the U.S. government's official web portal to all federal, state and local government web resources and services.